Terminal Aerodrome Forecast
Issued by NWS Lake Charles, LA

Home | Current Version | Previous Version | Text Only | Print | Product List | Glossary On
Versions: 1 2 3 4 5 6 7 8 9 10 11 12 13 14
274
FTUS44 KLCH 111203 AAA
TAFARA
TAF AMD
KARA 111203Z 1112/1212 22006KT P6SM SKC
      TEMPO 1112/1114 2SM BR
     FM111500 24013G20KT P6SM SKC
     FM120000 22008KT P6SM SKC
     FM120900 22005KT 4SM BR BKN007=

USA.gov is the U.S. government's official web portal to all federal, state and local government web resources and services.